Time;durP1;ratioP1;P1;durP2;ratioP2;P2;SDS_P1;SDS_P2;PMS_P1;PMS_P2;Temp;Humidity;BMP_temperature;BMP_pressure;BME280_temperature;BME280_humidity;BME280_pressure;Samples;Min_cycle;Max_cycle;Signal;HPM_P1;HPM_P2
2023/10/02 00:01:53;;;;;;;12.68;11.38;;;19.10;1.00;;;;;;5052504;28;20032;-74
2023/10/02 00:04:20;;;;;;;16.42;10.73;;;19.10;1.00;;;;;;5044405;28;20021;-74
2023/10/02 00:06:47;;;;;;;11.70;10.65;;;19.10;1.00;;;;;;5039755;28;20163;-74
2023/10/02 00:09:16;;;;;;;14.25;11.00;;;19.10;1.00;;;;;;5042158;28;20098;-74
2023/10/02 00:11:42;;;;;;;12.35;11.18;;;19.10;1.00;;;;;;5055310;28;20029;-75
2023/10/02 00:14:18;;;;;;;12.45;11.35;;;19.10;1.00;;;;;;5042911;28;20015;-74
2023/10/02 00:17:06;;;;;;;14.43;11.88;;;19.10;1.00;;;;;;5047050;28;20021;-74
2023/10/02 00:19:38;;;;;;;14.35;11.63;;;19.10;1.00;;;;;;5034156;28;20116;-74
2023/10/02 00:22:34;;;;;;;14.50;12.32;;;19.10;1.00;;;;;;5043181;28;20028;-75
2023/10/02 00:24:58;;;;;;;16.63;11.35;;;19.00;1.00;;;;;;5042234;28;20040;-74
2023/10/02 00:27:24;;;;;;;13.18;11.48;;;19.00;1.00;;;;;;5048105;28;20151;-75
2023/10/02 00:29:57;;;;;;;12.73;11.52;;;19.00;1.00;;;;;;5042477;28;20030;-75
2023/10/02 00:32:26;;;;;;;15.43;11.70;;;19.00;1.00;;;;;;5052676;28;20027;-75
2023/10/02 00:34:53;;;;;;;13.00;11.70;;;19.00;1.00;;;;;;5044193;28;20124;-75
2023/10/02 00:37:19;;;;;;;13.68;12.27;;;19.00;1.00;;;;;;5045020;28;20017;-75
2023/10/02 00:39:51;;;;;;;15.77;12.82;;;19.00;1.00;;;;;;5043438;28;20036;-75
2023/10/02 00:42:24;;;;;;;13.18;11.73;;;19.00;1.00;;;;;;5049893;28;20108;-75
2023/10/02 00:44:52;;;;;;;16.20;12.60;;;19.00;1.00;;;;;;5024353;28;20021;-75
2023/10/02 00:47:50;;;;;;;13.43;12.05;;;19.00;1.00;;;;;;5028981;28;20396;-75
2023/10/02 00:50:24;;;;;;;13.75;11.75;;;19.00;1.00;;;;;;5030120;28;20507;-75
2023/10/02 00:53:04;;;;;;;13.25;11.95;;;18.90;1.00;;;;;;5054214;28;20056;-75
2023/10/02 00:55:32;;;;;;;15.00;12.00;;;18.90;1.00;;;;;;5045189;28;20021;-74
2023/10/02 00:58:17;;;;;;;16.98;12.60;;;18.90;1.00;;;;;;5044636;28;20041;-74
2023/10/02 01:00:48;;;;;;;13.98;12.63;;;18.90;1.00;;;;;;5045988;28;20079;-75
2023/10/02 01:03:16;;;;;;;15.80;12.45;;;18.90;1.00;;;;;;5043278;28;20488;-74
2023/10/02 01:05:47;;;;;;;14.30;12.52;;;18.90;1.00;;;;;;5053216;28;20492;-75
2023/10/02 01:08:24;;;;;;;13.55;12.15;;;18.90;1.00;;;;;;5046594;28;20060;-75
2023/10/02 01:10:58;;;;;;;15.18;12.57;;;18.90;1.00;;;;;;5046644;28;20034;-75
2023/10/02 01:13:29;;;;;;;14.45;12.93;;;18.90;1.00;;;;;;5046621;28;20048;-75
2023/10/02 01:16:04;;;;;;;13.35;12.05;;;18.80;1.00;;;;;;5043422;28;20476;-75
2023/10/02 01:18:30;;;;;;;14.52;12.68;;;18.80;1.00;;;;;;5048212;28;20458;-74
2023/10/02 01:20:57;;;;;;;14.48;12.98;;;18.80;1.00;;;;;;5053022;28;20029;-75
2023/10/02 01:23:25;;;;;;;18.90;13.07;;;18.80;1.00;;;;;;5047915;28;20029;-74
2023/10/02 01:25:56;;;;;;;13.00;11.60;;;18.80;1.00;;;;;;5047681;28;20021;-74
2023/10/02 01:28:25;;;;;;;16.17;11.93;;;18.80;1.00;;;;;;5048202;28;20135;-74
2023/10/02 01:30:55;;;;;;;14.80;12.40;;;18.80;1.00;;;;;;5027178;28;20032;-75
2023/10/02 01:33:22;;;;;;;13.65;12.25;;;18.80;1.00;;;;;;5023493;28;20025;-74
2023/10/02 01:35:48;;;;;;;13.68;12.25;;;18.80;1.00;;;;;;5049487;28;20052;-74
2023/10/02 01:38:34;;;;;;;14.77;13.07;;;18.80;1.00;;;;;;5046739;28;20646;-75
2023/10/02 01:41:05;;;;;;;16.25;13.63;;;18.80;1.00;;;;;;5058313;28;20511;-75
2023/10/02 01:43:36;;;;;;;15.05;13.55;;;18.70;1.00;;;;;;5047528;28;20021;-74
2023/10/02 01:46:03;;;;;;;13.75;12.23;;;18.70;1.00;;;;;;5047080;28;20507;-74
2023/10/02 01:48:40;;;;;;;17.40;13.13;;;18.70;1.00;;;;;;5039394;28;20033;-74
2023/10/02 01:51:20;;;;;;;13.60;12.30;;;18.70;1.00;;;;;;5046736;28;20120;-75
2023/10/02 01:53:48;;;;;;;18.83;12.45;;;18.70;1.00;;;;;;5043870;28;20187;-74
2023/10/02 01:56:15;;;;;;;14.27;12.77;;;18.70;1.00;;;;;;5051058;28;20111;-74
2023/10/02 01:58:42;;;;;;;13.65;12.35;;;18.70;1.00;;;;;;5049798;28;20503;-74
2023/10/02 02:01:09;;;;;;;14.45;12.60;;;18.70;1.00;;;;;;5053766;28;20024;-75
2023/10/02 02:03:42;;;;;;;14.90;13.00;;;18.70;1.00;;;;;;5032716;28;20041;-74
2023/10/02 02:06:08;;;;;;;15.82;13.02;;;18.70;1.00;;;;;;5058457;28;20016;-74
2023/10/02 02:08:43;;;;;;;20.70;13.85;;;18.70;1.00;;;;;;5045262;28;20481;-75
2023/10/02 02:11:16;;;;;;;17.73;13.15;;;18.70;1.00;;;;;;5044990;28;20014;-75
2023/10/02 02:13:50;;;;;;;15.82;13.27;;;18.70;1.00;;;;;;5048423;28;20484;-75
2023/10/02 02:16:31;;;;;;;15.88;14.18;;;18.70;1.00;;;;;;5042161;28;20021;-75
2023/10/02 02:18:58;;;;;;;14.35;12.77;;;18.70;1.00;;;;;;5027042;28;20155;-75
2023/10/02 02:21:25;;;;;;;20.52;14.05;;;18.70;1.00;;;;;;5051357;28;20024;-74
2023/10/02 02:24:03;;;;;;;15.85;13.57;;;18.70;1.00;;;;;;5046934;28;20496;-74
2023/10/02 02:26:33;;;;;;;15.48;12.82;;;18.70;1.00;;;;;;5051566;28;20115;-75
2023/10/02 02:29:01;;;;;;;18.08;13.63;;;18.70;1.00;;;;;;5045893;28;20017;-75
2023/10/02 02:31:31;;;;;;;19.40;13.70;;;18.70;1.00;;;;;;5048311;28;20052;-74
2023/10/02 02:34:02;;;;;;;15.23;13.60;;;18.70;1.00;;;;;;5045404;28;20373;-74
2023/10/02 02:36:35;;;;;;;14.93;13.32;;;18.70;1.00;;;;;;5048387;28;20076;-75
2023/10/02 02:39:16;;;;;;;17.95;13.88;;;18.70;1.00;;;;;;5047426;28;20485;-75
2023/10/02 02:41:43;;;;;;;14.95;12.95;;;18.70;1.00;;;;;;5049342;28;20096;-75
2023/10/02 02:46:54;;;;;;;19.30;13.85;;;18.70;1.00;;;;;;5053195;28;20083;-74
2023/10/02 02:49:21;;;;;;;17.88;14.80;;;18.70;1.00;;;;;;5045383;28;20029;-74
2023/10/02 02:51:48;;;;;;;15.35;12.65;;;18.70;1.00;;;;;;5033100;28;20586;-74
2023/10/02 02:54:15;;;;;;;16.50;14.05;;;18.70;1.00;;;;;;5040280;28;20095;-74
2023/10/02 02:56:41;;;;;;;14.18;12.38;;;18.70;1.00;;;;;;5039823;28;20021;-74
2023/10/02 02:59:08;;;;;;;16.05;13.23;;;18.70;1.00;;;;;;5044590;28;20504;-75
2023/10/02 03:01:34;;;;;;;15.55;12.85;;;18.70;1.00;;;;;;5040814;28;20463;-75
2023/10/02 03:04:11;;;;;;;15.55;13.93;;;18.70;1.00;;;;;;5047319;28;20028;-75
2023/10/02 03:06:37;;;;;;;17.35;12.70;;;18.70;1.00;;;;;;5041987;28;20033;-74
2023/10/02 03:09:06;;;;;;;17.08;13.70;;;18.80;1.00;;;;;;5033997;28;20420;-75
2023/10/02 03:11:32;;;;;;;17.25;13.80;;;18.80;1.00;;;;;;5058028;28;20254;-74
2023/10/02 03:14:12;;;;;;;18.00;14.15;;;18.80;1.00;;;;;;5045324;28;20108;-74
2023/10/02 03:16:38;;;;;;;18.27;14.60;;;18.80;1.00;;;;;;5049400;28;20017;-75
2023/10/02 03:19:07;;;;;;;18.45;14.05;;;18.80;1.00;;;;;;5034420;28;20026;-74
2023/10/02 03:21:37;;;;;;;14.07;12.57;;;18.80;1.00;;;;;;5039309;28;20447;-75
2023/10/02 03:24:04;;;;;;;16.90;14.30;;;18.70;1.00;;;;;;5050231;28;20056;-74
2023/10/02 03:29:03;;;;;;;20.00;13.60;;;18.70;1.00;;;;;;5046202;28;20033;-75
2023/10/02 03:31:36;;;;;;;15.80;13.38;;;18.70;1.00;;;;;;5040293;28;20055;-75
2023/10/02 03:34:27;;;;;;;20.65;14.32;;;18.70;1.00;;;;;;5026591;28;20021;-74
2023/10/02 03:36:59;;;;;;;16.05;14.43;;;18.60;1.00;;;;;;5041647;28;20408;-74
2023/10/02 03:42:22;;;;;;;17.00;13.82;;;18.60;1.00;;;;;;5053473;28;20522;-74
2023/10/02 03:44:49;;;;;;;17.15;14.25;;;18.60;1.00;;;;;;5043781;28;20516;-75
2023/10/02 03:47:15;;;;;;;17.45;13.68;;;18.50;1.00;;;;;;5052543;28;20021;-74
2023/10/02 03:49:44;;;;;;;15.48;13.43;;;18.50;1.00;;;;;;5040526;28;20037;-74
2023/10/02 03:52:13;;;;;;;19.77;14.15;;;18.50;1.00;;;;;;5055021;28;20507;-74
2023/10/02 03:54:43;;;;;;;19.52;14.82;;;18.50;1.00;;;;;;5043344;28;20459;-74
2023/10/02 03:57:11;;;;;;;17.30;13.57;;;18.50;1.00;;;;;;5054663;28;20029;-75
2023/10/02 03:59:52;;;;;;;15.13;13.52;;;18.50;1.00;;;;;;5039333;28;20029;-74
2023/10/02 04:02:24;;;;;;;15.50;13.23;;;18.50;1.00;;;;;;5043573;28;20477;-74
2023/10/02 04:04:49;;;;;;;16.77;13.85;;;18.50;1.00;;;;;;5043824;28;20095;-74
2023/10/02 04:07:17;;;;;;;21.63;13.50;;;18.60;1.00;;;;;;5050321;28;20032;-75
2023/10/02 04:09:49;;;;;;;19.00;13.90;;;18.60;1.00;;;;;;5042558;28;20028;-74
2023/10/02 04:12:18;;;;;;;;;;;18.50;1.00;;;;;;5043147;28;20029;-74
2023/10/02 04:14:44;;;;;;;16.85;14.00;;;18.60;1.00;;;;;;5039861;28;19912;-74
2023/10/02 04:17:20;;;;;;;18.58;13.68;;;18.50;1.00;;;;;;5054269;28;20032;-74
2023/10/02 04:19:52;;;;;;;19.35;13.98;;;18.40;1.00;;;;;;5042298;28;20021;-74
2023/10/02 04:22:27;;;;;;;20.97;14.10;;;18.50;1.00;;;;;;5048911;28;20033;-74
2023/10/02 04:25:15;;;;;;;15.10;13.43;;;18.50;1.00;;;;;;5046216;28;20030;-74
2023/10/02 04:32:59;;;;;;;20.90;14.07;;;18.70;1.00;;;;;;5051011;28;20033;-74
2023/10/02 04:35:44;;;;;;;20.02;13.18;;;18.70;1.00;;;;;;5049303;28;20029;-74
2023/10/02 04:38:47;;;;;;;17.45;14.02;;;18.60;1.00;;;;;;5047632;28;20104;-74
2023/10/02 04:41:09;;;;;;;19.92;14.30;;;18.60;1.00;;;;;;5051094;28;20025;-74
2023/10/02 04:43:35;;;;;;;19.60;14.43;;;18.60;1.00;;;;;;5050584;28;20068;-74
2023/10/02 04:46:14;;;;;;;22.00;14.10;;;18.60;1.00;;;;;;5034994;28;20116;-74
2023/10/02 04:48:42;;;;;;;24.75;14.45;;;18.60;1.00;;;;;;5043140;28;20021;-74
2023/10/02 04:51:08;;;;;;;25.50;14.00;;;18.60;1.00;;;;;;5059872;28;20482;-75
2023/10/02 04:53:35;;;;;;;19.58;14.68;;;18.60;1.00;;;;;;5047741;28;20507;-74
2023/10/02 04:56:10;;;;;;;22.40;13.50;;;18.60;1.00;;;;;;5046700;28;20075;-74
2023/10/02 04:58:47;;;;;;;19.45;14.40;;;18.60;1.00;;;;;;5038582;28;20111;-75
2023/10/02 05:01:24;;;;;;;18.73;13.73;;;18.60;1.00;;;;;;5046132;28;20021;-75
2023/10/02 05:03:51;;;;;;;19.92;13.35;;;18.60;1.00;;;;;;5043495;28;20374;-74
2023/10/02 05:06:39;;;;;;;21.10;15.05;;;18.60;1.00;;;;;;5060692;28;20020;-74
2023/10/02 05:11:46;;;;;;;18.98;14.45;;;18.50;1.00;;;;;;5046287;28;20060;-74
2023/10/02 05:14:14;;;;;;;19.90;15.07;;;18.60;1.00;;;;;;5029085;28;20014;-74
2023/10/02 05:16:42;;;;;;;23.85;13.52;;;18.50;1.00;;;;;;5055004;28;20064;-75
2023/10/02 05:19:14;;;;;;;19.90;14.60;;;18.50;1.00;;;;;;5052184;28;20071;-74
2023/10/02 05:21:39;;;;;;;19.75;14.10;;;18.50;1.00;;;;;;5052035;28;20027;-75
2023/10/02 05:24:12;;;;;;;26.80;14.65;;;18.50;1.00;;;;;;5036281;28;20139;-74
2023/10/02 05:26:44;;;;;;;18.98;13.80;;;18.50;1.00;;;;;;5036848;28;20017;-74
2023/10/02 05:29:17;;;;;;;21.75;14.60;;;18.50;1.00;;;;;;5052985;28;20075;-75
2023/10/02 05:31:47;;;;;;;20.80;14.95;;;18.50;1.00;;;;;;5035834;28;20494;-74
2023/10/02 05:34:23;;;;;;;24.80;14.82;;;18.40;1.00;;;;;;5052351;28;20025;-75
2023/10/02 05:37:11;;;;;;;19.13;14.23;;;18.40;1.00;;;;;;5051734;28;20047;-74
2023/10/02 05:39:46;;;;;;;17.65;14.15;;;18.30;1.00;;;;;;5042147;28;20095;-74
2023/10/02 05:42:15;;;;;;;34.40;16.48;;;18.30;1.00;;;;;;5046105;28;20447;-75
2023/10/02 05:44:45;;;;;;;20.30;15.13;;;18.30;1.00;;;;;;5042820;28;20064;-75
2023/10/02 05:47:15;;;;;;;23.48;14.77;;;18.30;1.00;;;;;;5056436;28;20021;-75
2023/10/02 05:49:47;;;;;;;19.55;14.85;;;18.30;1.00;;;;;;5044205;28;20078;-75
2023/10/02 05:52:23;;;;;;;22.60;15.18;;;18.40;1.00;;;;;;5035849;28;20045;-75
2023/10/02 05:54:56;;;;;;;20.85;14.68;;;18.40;1.00;;;;;;5042629;28;20037;-75
2023/10/02 05:57:22;;;;;;;19.95;14.15;;;18.40;1.00;;;;;;5051352;28;20017;-75
2023/10/02 05:59:48;;;;;;;25.00;14.52;;;18.40;1.00;;;;;;5046097;28;20078;-74
2023/10/02 06:02:19;;;;;;;18.95;14.48;;;18.40;1.00;;;;;;5047815;28;20028;-75
2023/10/02 06:04:52;;;;;;;23.43;15.10;;;18.40;1.00;;;;;;5043879;28;20029;-75
2023/10/02 06:10:09;;;;;;;20.27;14.48;;;18.30;1.00;;;;;;5045167;28;20391;-75
2023/10/02 06:12:45;;;;;;;27.33;15.30;;;18.30;1.00;;;;;;5051894;28;20044;-75
2023/10/02 06:17:58;;;;;;;19.80;14.52;;;18.40;1.00;;;;;;5044389;28;20404;-74
2023/10/02 06:20:24;;;;;;;22.17;14.73;;;18.40;1.00;;;;;;5045062;28;20017;-75
2023/10/02 06:23:03;;;;;;;26.15;14.88;;;18.40;1.00;;;;;;5051488;28;20036;-74
2023/10/02 06:25:29;;;;;;;25.20;15.63;;;18.40;1.00;;;;;;5045116;28;20025;-74
2023/10/02 06:28:19;;;;;;;23.80;14.15;;;18.40;1.00;;;;;;5043912;28;20029;-74
2023/10/02 06:30:43;;;;;;;24.02;14.60;;;18.50;1.00;;;;;;5042148;28;20451;-74
2023/10/02 06:33:10;;;;;;;25.25;14.55;;;18.60;1.00;;;;;;5046856;28;20083;-73
2023/10/02 06:35:44;;;;;;;24.38;14.57;;;18.60;1.00;;;;;;5024822;28;20049;-73
2023/10/02 06:38:16;;;;;;;20.23;14.98;;;18.70;1.00;;;;;;5046938;28;20103;-73
2023/10/02 06:40:56;;;;;;;21.05;14.40;;;18.70;1.00;;;;;;5047197;28;20017;-73
2023/10/02 06:43:35;;;;;;;29.48;15.27;;;18.70;1.00;;;;;;5043877;28;20170;-73
2023/10/02 06:46:13;;;;;;;29.27;15.65;;;18.80;1.00;;;;;;5045598;28;20021;-73
2023/10/02 06:48:43;;;;;;;27.85;15.20;;;18.80;1.00;;;;;;5043095;28;20511;-73
2023/10/02 06:51:10;;;;;;;24.90;13.77;;;18.90;1.00;;;;;;5043661;28;20017;-73
2023/10/02 06:53:40;;;;;;;21.25;15.07;;;18.90;1.00;;;;;;5051227;28;20041;-73
2023/10/02 06:56:13;;;;;;;21.42;13.73;;;18.90;1.00;;;;;;5026531;28;20102;-73
2023/10/02 06:58:49;;;;;;;22.17;13.88;;;19.00;1.00;;;;;;5028869;28;20022;-73
2023/10/02 07:01:18;;;;;;;28.00;14.65;;;19.00;1.00;;;;;;5042968;28;20025;-73
2023/10/02 07:03:51;;;;;;;30.27;15.75;;;19.10;1.00;;;;;;5028280;28;20174;-73
2023/10/02 07:06:21;;;;;;;30.10;15.80;;;19.10;1.00;;;;;;5050945;28;20025;-73
2023/10/02 07:08:48;;;;;;;25.88;13.98;;;19.10;1.00;;;;;;5047496;28;20109;-73
2023/10/02 07:11:14;;;;;;;28.70;13.88;;;19.20;1.00;;;;;;5045638;28;20021;-73
2023/10/02 07:13:54;;;;;;;22.58;15.18;;;19.20;1.00;;;;;;5042738;28;20060;-73
2023/10/02 07:16:22;;;;;;;22.00;13.30;;;19.20;1.00;;;;;;5041919;28;20056;-73
2023/10/02 07:18:53;;;;;;;19.45;13.60;;;19.30;1.00;;;;;;5032493;28;20036;-73
2023/10/02 07:21:19;;;;;;;23.38;14.93;;;19.30;1.00;;;;;;5053994;28;20032;-73
2023/10/02 07:23:45;;;;;;;22.33;14.70;;;19.30;1.00;;;;;;5041389;28;20485;-73
2023/10/02 07:26:16;;;;;;;16.73;12.48;;;19.40;1.00;;;;;;5055345;28;20031;-73
2023/10/02 07:28:50;;;;;;;17.23;13.77;;;19.40;1.00;;;;;;5050403;28;20503;-73
2023/10/02 07:31:20;;;;;;;22.15;14.07;;;19.40;1.00;;;;;;5044577;28;20017;-73
2023/10/02 07:33:46;;;;;;;19.40;13.30;;;19.50;1.00;;;;;;5047059;28;20017;-73
2023/10/02 07:36:15;;;;;;;19.77;12.70;;;19.50;1.00;;;;;;5033166;28;20021;-73
2023/10/02 07:38:42;;;;;;;21.33;13.52;;;19.60;1.00;;;;;;5042901;28;20496;-73
2023/10/02 07:41:24;;;;;;;21.83;13.80;;;19.60;1.00;;;;;;5049902;28;20016;-73
2023/10/02 07:43:54;;;;;;;19.08;13.77;;;19.70;1.00;;;;;;5028089;28;20382;-73
2023/10/02 07:46:23;;;;;;;19.15;13.30;;;19.70;1.00;;;;;;5052779;28;20025;-73
2023/10/02 07:48:57;;;;;;;22.23;13.70;;;19.80;1.00;;;;;;5041246;28;20035;-73
2023/10/02 07:51:35;;;;;;;17.42;12.80;;;19.80;1.00;;;;;;5053893;28;20445;-73
2023/10/02 07:54:02;;;;;;;19.13;12.88;;;19.80;1.00;;;;;;5044064;28;20042;-73
2023/10/02 07:56:29;;;;;;;23.67;14.73;;;19.90;1.00;;;;;;5043240;28;20025;-73
2023/10/02 07:58:55;;;;;;;19.08;14.45;;;19.90;1.00;;;;;;5028531;28;20454;-73
2023/10/02 08:01:25;;;;;;;20.80;14.15;;;19.90;1.00;;;;;;5044047;28;20539;-73
2023/10/02 08:03:54;;;;;;;18.08;13.52;;;20.00;1.00;;;;;;5048274;28;20327;-73
2023/10/02 08:06:36;;;;;;;21.70;14.15;;;20.00;1.00;;;;;;5047102;28;20561;-74
2023/10/02 08:11:53;;;;;;;21.60;15.02;;;20.00;1.00;;;;;;5039014;28;20045;-73
2023/10/02 08:14:41;;;;;;;26.42;15.23;;;20.00;1.00;;;;;;5041618;28;20009;-73
2023/10/02 08:17:18;;;;;;;23.13;14.98;;;20.10;1.00;;;;;;5057605;28;20024;-73
2023/10/02 08:19:54;;;;;;;18.63;14.23;;;20.10;1.00;;;;;;5043455;28;20473;-73
2023/10/02 08:22:20;;;;;;;21.70;15.18;;;20.20;1.00;;;;;;5041987;28;20751;-73
2023/10/02 08:24:50;;;;;;;23.00;15.15;;;20.20;1.00;;;;;;5032860;28;20513;-73
2023/10/02 08:27:19;;;;;;;23.80;15.82;;;20.20;1.00;;;;;;5052550;28;20021;-73
2023/10/02 08:29:45;;;;;;;25.23;15.15;;;20.30;1.00;;;;;;5039675;28;20026;-73
2023/10/02 08:32:11;;;;;;;26.17;15.75;;;20.20;1.00;;;;;;5053319;28;20039;-74
2023/10/02 08:34:37;;;;;;;23.77;14.52;;;20.30;1.00;;;;;;5041227;28;20025;-74
2023/10/02 08:37:07;;;;;;;26.33;14.95;;;20.40;1.00;;;;;;5050940;28;20025;-73
2023/10/02 08:39:40;;;;;;;23.13;15.45;;;20.40;1.00;;;;;;5039208;28;20017;-73
2023/10/02 08:42:10;;;;;;;19.33;15.23;;;20.50;1.00;;;;;;5045271;28;20036;-73
2023/10/02 08:44:40;;;;;;;20.77;14.63;;;20.50;1.00;;;;;;5040181;28;20036;-73
2023/10/02 08:47:24;;;;;;;20.35;14.32;;;20.50;1.00;;;;;;5044760;28;20029;-73
2023/10/02 08:50:01;;;;;;;18.50;14.25;;;20.60;1.00;;;;;;5042839;28;20026;-73
2023/10/02 08:52:38;;;;;;;20.90;14.80;;;20.70;1.00;;;;;;5048849;28;20527;-73
2023/10/02 08:56:21;;;;;;;19.13;13.77;;;20.80;1.00;;;;;;5044782;28;20049;-73
2023/10/02 08:58:15;;;;;;;23.00;15.50;;;20.90;1.00;;;;;;5040937;28;20033;-73
2023/10/02 09:03:46;;;;;;;18.60;13.35;;;20.90;99.90;;;;;;5050194;28;20033;-73
2023/10/02 09:06:26;;;;;;;26.02;14.18;;;21.00;99.90;;;;;;5042184;28;20028;-73
2023/10/02 09:11:41;;;;;;;20.08;13.63;;;21.10;99.90;;;;;;5050669;28;20033;-73
2023/10/02 09:16:45;;;;;;;20.23;13.70;;;21.10;99.90;;;;;;5042955;28;20029;-73
2023/10/02 09:19:30;;;;;;;25.58;12.95;;;21.30;99.90;;;;;;5046124;28;20501;-73
2023/10/02 09:22:11;;;;;;;18.77;12.55;;;21.30;99.90;;;;;;5062761;28;20067;-73
2023/10/02 09:25:13;;;;;;;21.20;13.27;;;21.40;99.90;;;;;;5043717;28;20588;-73
2023/10/02 09:27:38;;;;;;;24.45;13.68;;;21.40;99.90;;;;;;5050744;28;20032;-73
2023/10/02 09:30:21;;;;;;;30.67;13.40;;;21.50;99.90;;;;;;5028126;28;20388;-73
2023/10/02 09:32:53;;;;;;;21.25;13.95;;;21.50;99.90;;;;;;5050392;28;20021;-73
2023/10/02 09:35:32;;;;;;;20.40;13.15;;;21.60;99.90;;;;;;5047163;28;20025;-73
2023/10/02 09:38:05;;;;;;;17.30;12.77;;;21.60;99.90;;;;;;5049373;28;20064;-73
2023/10/02 09:41:15;;;;;;;17.98;12.80;;;21.60;99.90;;;;;;5044459;28;20079;-73
2023/10/02 09:43:24;;;;;;;20.70;12.57;;;21.60;99.90;;;;;;5039876;28;20033;-73
2023/10/02 09:45:59;;;;;;;20.13;11.40;;;21.60;99.90;;;;;;5056344;28;20032;-73
2023/10/02 09:51:27;;;;;;;18.60;11.43;;;21.60;99.90;;;;;;5044623;28;20044;-73
2023/10/02 09:54:19;;;;;;;16.60;10.90;;;21.70;99.90;;;;;;5047832;28;20037;-73
2023/10/02 09:57:12;;;;;;;14.73;11.93;;;21.70;99.90;;;;;;5048504;28;20038;-73
2023/10/02 09:59:46;;;;;;;18.75;12.75;;;21.70;99.90;;;;;;5042749;28;20115;-73
2023/10/02 10:10:45;;;;;;;23.80;13.23;;;22.00;99.90;;;;;;5046599;28;20029;-74
2023/10/02 10:13:31;;;;;;;21.63;14.30;;;22.00;99.90;;;;;;5045116;28;20033;-74
2023/10/02 10:16:18;;;;;;;19.02;13.32;;;22.10;99.90;;;;;;5044512;28;20072;-73
2023/10/02 10:21:56;;;;;;;20.95;13.73;;;22.00;99.90;;;;;;5040412;28;20041;-74
2023/10/02 10:24:56;;;;;;;22.00;13.20;;;22.20;99.90;;;;;;5040806;28;20172;-73
2023/10/02 10:28:05;;;;;;;17.58;13.48;;;22.30;99.90;;;;;;5051200;28;20029;-73
2023/10/02 10:35:49;;;;;;;27.45;15.75;;;22.30;99.90;;;;;;5044504;28;20067;-74
2023/10/02 10:41:14;;;;;;;20.13;13.73;;;22.50;39.50;;;;;;5044131;28;20040;-73
2023/10/02 10:46:28;;;;;;;25.02;15.98;;;22.60;99.90;;;;;;5044219;28;20251;-74
2023/10/02 10:49:19;;;;;;;21.80;13.85;;;22.60;99.90;;;;;;5049474;28;20021;-73
2023/10/02 10:51:52;;;;;;;20.58;13.40;;;22.70;99.90;;;;;;5040787;28;20036;-73
2023/10/02 10:54:30;;;;;;;28.27;14.48;;;22.70;99.90;;;;;;5035237;28;20094;-73
2023/10/02 10:57:19;;;;;;;23.13;15.10;;;22.70;99.90;;;;;;5053969;28;20434;-73
2023/10/02 10:59:45;;;;;;;23.90;16.33;;;22.80;99.90;;;;;;5041978;28;20063;-73
2023/10/02 11:02:15;;;;;;;24.67;16.13;;;22.90;1.00;;;;;;5045494;28;20488;-74
2023/10/02 11:04:51;;;;;;;30.25;15.38;;;22.90;1.00;;;;;;5023615;28;20045;-73
2023/10/02 11:07:21;;;;;;;27.77;16.85;;;22.90;75.50;;;;;;5049713;28;20074;-74
2023/10/02 11:10:15;;;;;;;24.67;15.50;;;23.00;72.80;;;;;;5043341;28;20018;-74
2023/10/02 11:12:58;;;;;;;24.80;17.45;;;23.10;99.90;;;;;;5020945;28;20029;-73
2023/10/02 11:15:47;;;;;;;27.23;17.58;;;23.10;15.10;;;;;;5050846;28;20047;-73
2023/10/02 11:18:22;;;;;;;31.65;17.52;;;23.20;38.30;;;;;;5045515;28;20038;-74
2023/10/02 11:20:54;;;;;;;24.33;17.95;;;23.30;1.00;;;;;;5045078;28;20031;-74
2023/10/02 11:23:43;;;;;;;25.02;17.15;;;23.30;1.00;;;;;;5027737;28;20391;-73
2023/10/02 11:26:21;;;;;;;26.27;18.08;;;23.30;1.00;;;;;;5046467;28;20693;-73
2023/10/02 11:28:50;;;;;;;25.73;16.80;;;23.40;3.80;;;;;;5042635;28;20095;-73
2023/10/02 11:34:05;;;;;;;26.88;17.27;;;23.60;1.00;;;;;;5045289;28;20036;-73
2023/10/02 11:36:35;;;;;;;27.10;16.63;;;23.80;1.00;;;;;;5035190;28;20021;-73
2023/10/02 11:39:16;;;;;;;27.55;17.15;;;23.80;1.00;;;;;;5043056;28;20029;-73
2023/10/02 11:41:43;;;;;;;29.73;20.92;;;23.90;99.90;;;;;;5055525;28;20025;-73
2023/10/02 11:44:12;;;;;;;28.60;19.50;;;24.00;99.90;;;;;;5043205;28;20036;-73
2023/10/02 11:46:40;;;;;;;25.35;18.15;;;24.00;99.90;;;;;;5042527;28;20109;-73
2023/10/02 11:49:12;;;;;;;27.15;16.15;;;24.00;99.90;;;;;;5046662;28;20017;-73
2023/10/02 11:51:39;;;;;;;26.00;15.98;;;23.90;99.90;;;;;;5042258;28;20022;-73
2023/10/02 11:54:13;;;;;;;28.65;16.65;;;24.00;99.90;;;;;;5041150;28;20037;-73
2023/10/02 11:56:38;;;;;;;24.67;16.25;;;24.10;99.90;;;;;;5044398;28;20589;-73
2023/10/02 11:59:06;;;;;;;25.77;16.20;;;24.20;99.90;;;;;;5045839;28;20108;-73
2023/10/02 12:01:32;;;;;;;26.05;16.98;;;24.20;99.90;;;;;;5039806;28;20032;-74
2023/10/02 12:03:57;;;;;;;26.25;15.77;;;24.30;99.90;;;;;;5042406;28;20029;-74
2023/10/02 12:06:25;;;;;;;22.70;14.85;;;24.20;99.90;;;;;;5043380;28;20025;-74
2023/10/02 12:08:51;;;;;;;33.03;15.63;;;24.00;99.90;;;;;;5042670;28;20140;-73
2023/10/02 12:11:17;;;;;;;27.75;15.60;;;24.00;99.90;;;;;;5028044;28;20388;-73
2023/10/02 12:13:44;;;;;;;25.33;18.15;;;24.20;99.90;;;;;;5030976;28;20030;-73
2023/10/02 12:16:13;;;;;;;22.38;15.70;;;24.20;99.90;;;;;;5045267;28;20021;-73
2023/10/02 12:18:42;;;;;;;25.02;15.55;;;24.30;99.90;;;;;;5040926;28;20029;-73
2023/10/02 12:21:10;;;;;;;27.27;14.30;;;24.40;99.90;;;;;;5048460;28;20107;-73
2023/10/02 12:23:40;;;;;;;25.73;14.80;;;24.50;99.90;;;;;;5030331;28;20020;-73
2023/10/02 12:26:12;;;;;;;24.08;14.50;;;24.50;99.90;;;;;;5045715;28;20025;-73
2023/10/02 12:28:39;;;;;;;29.27;17.40;;;24.50;99.90;;;;;;5029867;28;20103;-73
2023/10/02 12:31:14;;;;;;;25.13;17.10;;;24.50;99.90;;;;;;5046645;28;20021;-73
2023/10/02 12:33:41;;;;;;;27.98;19.63;;;24.50;99.90;;;;;;5040265;28;20030;-74
2023/10/02 12:36:10;;;;;;;31.80;20.23;;;24.60;97.30;;;;;;5026005;28;20032;-74
2023/10/02 12:38:36;;;;;;;32.47;19.70;;;24.60;62.50;;;;;;5019763;28;20117;-74
2023/10/02 12:41:09;;;;;;;29.38;16.92;;;24.50;39.60;;;;;;5040841;28;20714;-74
2023/10/02 12:43:35;;;;;;;26.75;18.42;;;24.50;81.10;;;;;;5042554;28;20028;-74
2023/10/02 12:46:01;;;;;;;37.33;18.58;;;24.70;60.70;;;;;;5059924;28;20255;-74
2023/10/02 12:48:30;;;;;;;28.40;19.58;;;24.70;86.80;;;;;;5036243;28;20017;-74
2023/10/02 12:50:55;;;;;;;25.58;18.40;;;24.70;41.60;;;;;;5049054;28;20025;-73
2023/10/02 12:53:21;;;;;;;59.75;21.25;;;24.80;66.90;;;;;;5047730;28;20047;-74
2023/10/02 12:55:47;;;;;;;49.00;18.77;;;24.80;58.60;;;;;;5055759;28;20468;-74
2023/10/02 12:58:14;;;;;;;94.93;24.42;;;24.80;61.60;;;;;;5050796;28;20384;-74
2023/10/02 13:00:40;;;;;;;39.75;21.35;;;24.80;82.90;;;;;;5028090;28;20128;-74
2023/10/02 13:03:06;;;;;;;24.45;18.42;;;24.90;39.60;;;;;;5046000;28;20096;-74
2023/10/02 13:05:32;;;;;;;31.98;18.75;;;24.90;36.60;;;;;;5047126;28;20387;-74
2023/10/02 13:07:58;;;;;;;30.00;18.05;;;24.80;68.80;;;;;;5057810;28;20029;-74
2023/10/02 13:10:24;;;;;;;32.15;19.02;;;24.90;61.50;;;;;;5053098;28;20025;-73
2023/10/02 13:12:50;;;;;;;23.38;17.17;;;24.90;26.80;;;;;;5055462;28;20109;-74
2023/10/02 13:15:16;;;;;;;30.10;18.13;;;24.90;25.50;;;;;;5050594;28;20095;-74
2023/10/02 13:17:43;;;;;;;29.02;18.80;;;24.90;16.20;;;;;;5051125;28;20511;-74
2023/10/02 13:20:10;;;;;;;25.00;17.15;;;24.90;2.70;;;;;;5046528;28;20040;-73
2023/10/02 13:22:36;;;;;;;28.67;17.05;;;24.80;9.90;;;;;;5047344;28;20025;-74
2023/10/02 13:25:05;;;;;;;30.90;18.52;;;24.80;23.70;;;;;;5048750;28;20033;-74
2023/10/02 13:27:31;;;;;;;24.90;17.88;;;25.00;1.00;;;;;;5050475;28;20021;-73
2023/10/02 13:29:58;;;;;;;26.10;17.70;;;24.90;1.00;;;;;;5045250;28;20089;-73
2023/10/02 13:32:23;;;;;;;26.00;18.10;;;24.90;1.00;;;;;;5042074;28;20017;-73
2023/10/02 13:34:51;;;;;;;25.35;18.60;;;24.90;1.00;;;;;;5046250;28;20028;-73
2023/10/02 13:37:17;;;;;;;28.50;18.98;;;24.90;1.00;;;;;;5058695;28;20024;-73
2023/10/02 13:39:43;;;;;;;24.20;19.10;;;24.90;1.00;;;;;;5043405;28;20026;-73
2023/10/02 13:42:09;;;;;;;23.13;17.50;;;24.90;1.00;;;;;;5048765;28;20063;-73
2023/10/02 13:44:34;;;;;;;26.85;18.88;;;24.80;1.00;;;;;;5045290;28;20025;-73
2023/10/02 13:47:00;;;;;;;33.97;18.73;;;24.80;1.00;;;;;;5058440;28;20025;-73
2023/10/02 13:49:27;;;;;;;21.90;16.10;;;24.90;1.00;;;;;;5043994;28;20029;-73
2023/10/02 13:51:54;;;;;;;27.40;19.38;;;24.80;1.00;;;;;;5054114;28;20095;-74
2023/10/02 13:54:20;;;;;;;26.88;18.50;;;24.90;1.00;;;;;;5045642;28;20049;-73
2023/10/02 13:56:46;;;;;;;27.33;20.27;;;24.80;1.00;;;;;;5044502;28;20017;-73
2023/10/02 13:59:12;;;;;;;25.48;18.77;;;24.80;1.00;;;;;;5045009;28;20400;-73
2023/10/02 14:01:38;;;;;;;26.88;18.20;;;24.80;1.00;;;;;;5044660;28;20040;-73